Aeroporto :
LOGIN :

Iscrizione | Disclaimer

   EN    FR    IT 

 










Sommario :    VFR   VFR Marginale   IFR   IFR Intensivo   IFR Molto Intensivo
Visibilità : 
Base nubi : 
>= 8 km
>= 3000ft
5 / 8 km
1000 / 3000 ft
1500m / 5 km
500 / 1000 ft
800 / 1500m
200 / 500 ft
< 800m
< 200 ft
Simboli :   Temporali  Nebbia  Neve Forte  Precipitazioni Forti  Vento > 20 kt
SIGMETs :   Varie  Temporali  Ghiacco  Turbolenza  Onda orograficha  Ceneri Vulcaniche







- Altitudine del aeroporto : 390 ft
- Codice IATA : NQY
- Carte del aeroporto


EGHQ - Newquay

ULTIMO METAR :
  • 181520Z 29018KT 9999 SCT021 07/04 Q1007

METARs OBSOLETI :
  • 181450Z 29019KT 9999 SCT021 07/04 Q1007
  • 181420Z 28021KT 9999 VCSH SCT021CB 07/04 Q1006
  • 181350Z 28021KT 9999 VCSH SCT018CB 08/04 Q1006
  • 181320Z 28019KT 9999 VCSH SCT018 08/04 Q1006
  • 181250Z 28017KT 9999 SCT018 08/06 Q1006

TAF TAF EGHQ
Valido dal 18 a 15 ore il 18 a 22 ore UTC


181357Z 1815/1822 28020KT 9999 SCT020
TEMPO 1815/1822 29023G33KT 6000 SHRA BKN014
Nessun NOTAM noto per questo aeroporto.



MetMap, La meteo Aeronautica in un colpo d'occhio ! - Copyright ORBIFLY Dicembre 2007 - Disclaimer

ORBIFLY MET'MAP TEAM :

Programmazione e sviluppo : Alexandra Zaïnal
Concezione e sviluppo : Baudouin d'Aumeries
Co-Programmazione e sviluppo : Marc-Olivier Méhu
Supporto tecnico e logistico : Manuel Goepfert
Aiuto per la traduzione : Arnaldo La Scala

Contatto : metmap@orbifly.com




FONTI E CREDITI :

   NOAA